Time;durP1;ratioP1;P1;durP2;ratioP2;P2;SDS_P1;SDS_P2;PMS_P1;PMS_P2;Temp;Humidity;BMP_temperature;BMP_pressure;BME280_temperature;BME280_humidity;BME280_pressure;Samples;Min_cycle;Max_cycle;Signal;HPM_P1;HPM_P2
2021/05/22 00:00:44;;;;;;;5.72;1.80;;;;;;;12.08;63.11;98270.25;5011848;28;20400;-83
2021/05/22 00:03:10;;;;;;;7.47;1.40;;;;;;;12.08;63.30;98262.34;5006583;28;20412;-83
2021/05/22 00:05:37;;;;;;;3.08;1.23;;;;;;;12.05;63.25;98260.81;4992569;28;20054;-84
2021/05/22 00:08:04;;;;;;;7.55;1.85;;;;;;;12.04;63.03;98256.44;4992820;28;20050;-84
2021/05/22 00:10:31;;;;;;;4.25;1.17;;;;;;;12.03;63.11;98249.50;4992495;28;20065;-83
2021/05/22 00:12:58;;;;;;;4.18;1.33;;;;;;;12.03;63.16;98249.50;4994799;28;20073;-84
2021/05/22 00:15:25;;;;;;;5.82;1.35;;;;;;;12.03;63.21;98253.97;5011781;28;20054;-84
2021/05/22 00:17:51;;;;;;;2.95;0.82;;;;;;;12.02;63.12;98247.84;5010706;28;20052;-84
2021/05/22 00:20:18;;;;;;;2.63;1.05;;;;;;;12.02;63.36;98253.13;5012590;28;20049;-84
2021/05/22 00:22:45;;;;;;;5.50;1.25;;;;;;;12.01;63.36;98240.91;5010277;28;20054;-84
2021/05/22 00:25:13;;;;;;;6.38;1.58;;;;;;;12.00;63.26;98247.13;4992549;28;20046;-83
2021/05/22 00:27:39;;;;;;;5.80;1.50;;;;;;;11.99;63.24;98237.56;4992434;28;20061;-84
2021/05/22 00:30:08;;;;;;;5.40;1.23;;;;;;;11.98;63.12;98236.75;4991208;28;20062;-84
2021/05/22 00:32:35;;;;;;;3.00;1.23;;;;;;;11.98;63.44;98235.91;4992557;28;20393;-84
2021/05/22 00:35:02;;;;;;;4.80;1.30;;;;;;;11.97;63.35;98231.59;4992596;28;20054;-83
2021/05/22 00:37:29;;;;;;;4.93;1.33;;;;;;;11.96;63.27;98222.03;4992110;28;20467;-84
2021/05/22 00:39:56;;;;;;;5.55;1.02;;;;;;;11.95;63.42;98226.47;4990805;28;20058;-84
2021/05/22 00:42:23;;;;;;;5.82;1.10;;;;;;;11.93;63.40;98217.84;4990799;28;20069;-83
2021/05/22 00:45:10;;;;;;;5.13;1.50;;;;;;;11.88;62.21;98224.50;5009003;28;20100;-84
2021/05/22 00:47:39;;;;;;;4.72;1.10;;;;;;;11.92;63.33;98220.63;5010541;28;20045;-84
2021/05/22 00:50:09;;;;;;;3.63;1.00;;;;;;;11.90;63.30;98219.91;5010199;28;20065;-84
2021/05/22 00:52:36;;;;;;;4.55;1.20;;;;;;;11.89;63.43;98215.63;5011715;28;20081;-84
2021/05/22 00:55:04;;;;;;;4.15;1.38;;;;;;;11.89;63.45;98215.63;5006090;28;20054;-84
2021/05/22 00:57:32;;;;;;;3.53;1.50;;;;;;;11.88;63.67;98209.50;4992875;28;20173;-84
2021/05/22 00:59:58;;;;;;;5.07;1.20;;;;;;;11.88;63.80;98208.69;4993135;28;20058;-84
2021/05/22 01:02:26;;;;;;;4.20;1.20;;;;;;;11.86;63.53;98196.44;4991472;28;20083;-85
2021/05/22 01:04:56;;;;;;;4.78;1.65;;;;;;;11.86;63.44;98199.09;4993148;28;20055;-84
2021/05/22 01:07:23;;;;;;;5.57;1.30;;;;;;;11.86;63.42;98201.72;4991026;28;20065;-84
2021/05/22 01:09:55;;;;;;;6.43;1.80;;;;;;;11.84;63.27;98201.03;4992283;28;20583;-84
2021/05/22 01:12:26;;;;;;;7.35;2.10;;;;;;;11.84;63.38;98194.91;4992778;28;20422;-84
2021/05/22 01:15:09;;;;;;;5.57;1.52;;;;;;;11.80;62.58;98202.28;5009007;28;20567;-84
2021/05/22 01:17:39;;;;;;;5.47;1.95;;;;;;;11.82;63.33;98208.22;5012149;28;20054;-83
2021/05/22 01:20:19;;;;;;;4.65;1.40;;;;;;;11.81;62.66;98213.66;5012243;28;20499;-84
2021/05/22 01:22:51;;;;;;;5.10;1.30;;;;;;;11.80;63.01;98206.69;5012570;28;20042;-86
2021/05/22 01:25:30;;;;;;;2.78;1.30;;;;;;;11.79;62.80;98205.03;4972329;28;20058;-84
2021/05/22 01:27:59;;;;;;;5.07;1.30;;;;;;;11.81;63.42;98192.56;4973810;28;20074;-84
2021/05/22 01:30:26;;;;;;;6.28;1.52;;;;;;;11.81;63.38;98206.56;4974034;28;20059;-84
2021/05/22 01:32:53;;;;;;;4.90;1.30;;;;;;;11.82;63.39;98195.03;4976239;28;20420;-85
2021/05/22 01:35:20;;;;;;;3.30;1.20;;;;;;;11.82;63.22;98210.88;4997349;28;20054;-84
2021/05/22 01:37:47;;;;;;;4.18;1.30;;;;;;;11.83;63.17;98196.75;4996399;28;20051;-85
2021/05/22 01:40:14;;;;;;;7.85;1.83;;;;;;;11.84;63.24;98203.66;4996606;28;20101;-84
2021/05/22 01:42:41;;;;;;;6.22;1.38;;;;;;;11.84;62.98;98206.31;4996302;28;20054;-84
2021/05/22 01:45:15;;;;;;;3.20;1.33;;;;;;;11.83;62.06;98220.47;4996027;28;20067;-84
2021/05/22 01:47:45;;;;;;;3.00;1.05;;;;;;;11.83;62.76;98207.28;4994641;28;20058;-84
2021/05/22 01:50:15;;;;;;;3.47;1.10;;;;;;;11.86;62.62;98211.44;4995470;28;20061;-84
2021/05/22 01:52:44;;;;;;;4.47;1.08;;;;;;;11.85;61.89;98199.25;5005312;28;20049;-85
2021/05/22 01:55:13;;;;;;;6.10;1.33;;;;;;;11.86;62.76;98198.28;5015131;28;20061;-84
2021/05/22 01:57:40;;;;;;;6.03;1.25;;;;;;;11.86;62.05;98196.44;5014954;28;20057;-84
2021/05/22 02:00:09;;;;;;;4.60;1.15;;;;;;;11.86;62.03;98196.44;5014715;28;20116;-84
2021/05/22 02:02:35;;;;;;;4.72;1.10;;;;;;;11.86;62.05;98193.00;5011471;28;20514;-84
2021/05/22 02:05:05;;;;;;;4.60;1.00;;;;;;;11.84;60.86;98190.50;5014388;28;20049;-84
2021/05/22 02:07:34;;;;;;;2.45;1.00;;;;;;;11.84;61.84;98177.31;5014326;28;20053;-84
2021/05/22 02:10:01;;;;;;;4.68;1.17;;;;;;;11.87;61.91;98197.28;5014100;28;20459;-84
2021/05/22 02:12:29;;;;;;;4.78;1.20;;;;;;;11.85;61.56;98194.78;5005150;28;20104;-85
2021/05/22 02:14:57;;;;;;;5.97;1.25;;;;;;;11.85;61.56;98180.78;4993222;28;20144;-84
2021/05/22 02:17:24;;;;;;;7.03;1.40;;;;;;;11.85;61.57;98183.44;4993154;28;20508;-84
2021/05/22 02:19:55;;;;;;;3.92;0.85;;;;;;;11.84;61.38;98177.31;4994234;28;20050;-84
2021/05/22 02:22:23;;;;;;;3.90;0.90;;;;;;;11.85;61.61;98183.44;4995437;28;20046;-84
2021/05/22 02:24:51;;;;;;;5.35;1.10;;;;;;;11.85;61.63;98183.44;4993546;28;20054;-84
2021/05/22 02:27:19;;;;;;;5.00;1.35;;;;;;;11.84;61.45;98171.19;4994653;28;20385;-84
2021/05/22 02:29:47;;;;;;;4.78;0.90;;;;;;;11.82;61.31;98173.97;4994987;28;20053;-84
2021/05/22 02:32:15;;;;;;;3.65;1.30;;;;;;;11.79;60.99;98168.13;4994017;28;20435;-84
2021/05/22 02:34:52;;;;;;;4.15;1.20;;;;;;;11.76;59.76;98173.66;4994725;28;20047;-84
2021/05/22 02:37:21;;;;;;;3.90;1.00;;;;;;;11.77;60.59;98167.44;4995288;28;20054;-84
2021/05/22 02:39:50;;;;;;;3.50;0.77;;;;;;;11.76;61.23;98171.03;4995442;28;20050;-84
2021/05/22 02:42:18;;;;;;;3.75;1.20;;;;;;;11.76;61.33;98165.75;4993726;28;20509;-83
2021/05/22 02:44:50;;;;;;;6.50;1.08;;;;;;;11.72;60.27;98163.41;4994796;28;20054;-84
2021/05/22 02:47:19;;;;;;;3.67;1.15;;;;;;;11.72;60.85;98165.19;4994508;28;20054;-84
2021/05/22 02:49:48;;;;;;;6.40;1.10;;;;;;;11.71;60.90;98169.63;4994552;28;20520;-84
2021/05/22 02:52:18;;;;;;;4.05;1.20;;;;;;;11.71;60.86;98153.00;4995166;28;20046;-84
2021/05/22 02:54:47;;;;;;;7.72;1.70;;;;;;;11.73;61.05;98153.69;4992862;28;20047;-84
2021/05/22 02:57:16;;;;;;;3.90;1.25;;;;;;;11.73;61.65;98157.16;5007831;28;20606;-83
2021/05/22 02:59:46;;;;;;;7.70;1.35;;;;;;;11.74;61.38;98158.00;5013450;28;20050;-85
2021/05/22 03:02:12;;;;;;;22.13;1.83;;;;;;;11.76;61.46;98148.16;5012980;28;20046;-84
2021/05/22 03:04:39;;;;;;;4.57;0.93;;;;;;;11.81;61.64;98151.22;5013253;28;20471;-84
2021/05/22 03:07:06;;;;;;;6.55;1.33;;;;;;;11.81;61.42;98145.13;5000371;28;20054;-83
2021/05/22 03:09:33;;;;;;;3.92;1.00;;;;;;;11.83;61.37;98141.38;4993425;28;20050;-83
2021/05/22 03:12:00;;;;;;;5.63;1.10;;;;;;;11.85;61.22;98143.88;4993347;28;20186;-83
2021/05/22 03:14:27;;;;;;;5.70;1.50;;;;;;;11.83;61.16;98149.28;4993376;28;20054;-84
2021/05/22 03:16:55;;;;;;;5.65;1.40;;;;;;;11.83;61.28;98133.47;5004006;28;20053;-84
2021/05/22 03:19:21;;;;;;;3.70;1.33;;;;;;;11.82;61.38;98134.41;5013098;28;20514;-84
2021/05/22 03:21:48;;;;;;;4.78;1.10;;;;;;;11.81;61.23;98138.03;5012654;28;20057;-84
2021/05/22 03:24:15;;;;;;;5.38;1.33;;;;;;;11.77;60.96;98143.72;5011532;28;20061;-84
2021/05/22 03:26:41;;;;;;;6.35;1.35;;;;;;;11.73;61.12;98130.81;5004473;28;20042;-85
2021/05/22 03:29:08;;;;;;;6.75;1.48;;;;;;;11.73;61.34;98143.13;4993435;28;20061;-84
2021/05/22 03:31:34;;;;;;;2.65;0.98;;;;;;;11.73;61.27;98137.88;4993016;28;20050;-84
2021/05/22 03:34:01;;;;;;;5.10;1.00;;;;;;;11.72;61.37;98125.66;4992645;28;20105;-84
2021/05/22 03:36:28;;;;;;;2.75;1.00;;;;;;;11.71;61.52;98135.34;4997683;28;20061;-84
2021/05/22 03:38:54;;;;;;;4.28;1.10;;;;;;;11.70;61.58;98133.69;5012699;28;20061;-84
2021/05/22 03:41:21;;;;;;;8.25;1.10;;;;;;;11.73;61.73;98132.59;5011190;28;20402;-84
2021/05/22 03:43:48;;;;;;;4.00;1.10;;;;;;;11.74;61.74;98136.91;5012832;28;20408;-85
2021/05/22 03:46:14;;;;;;;5.35;0.80;;;;;;;11.75;61.75;98133.31;5010990;28;20061;-84
2021/05/22 03:48:41;;;;;;;6.65;1.20;;;;;;;11.76;61.21;98128.84;5012275;28;20045;-84
2021/05/22 03:51:07;;;;;;;2.28;0.88;;;;;;;11.78;61.78;98133.00;5012423;28;20515;-84
2021/05/22 03:53:34;;;;;;;4.72;1.30;;;;;;;11.80;61.71;98127.63;5010790;28;20061;-84
2021/05/22 03:56:01;;;;;;;2.78;0.95;;;;;;;11.82;61.58;98134.41;5011448;28;20068;-84
2021/05/22 03:58:28;;;;;;;2.78;0.93;;;;;;;11.83;61.62;98136.09;5011042;28;20050;-84
2021/05/22 04:00:54;;;;;;;8.45;1.20;;;;;;;11.88;61.87;98134.88;5011308;28;20054;-84
2021/05/22 04:03:23;;;;;;;3.90;1.00;;;;;;;11.88;61.32;98137.50;5012208;28;20057;-84
2021/05/22 04:05:50;;;;;;;4.93;0.73;;;;;;;11.92;61.73;98136.25;5010026;28;20308;-84
2021/05/22 04:08:16;;;;;;;3.45;1.30;;;;;;;11.94;61.61;98139.56;4992467;28;20057;-84
2021/05/22 04:10:44;;;;;;;2.65;1.10;;;;;;;11.96;61.59;98138.47;4992053;28;20492;-84
2021/05/22 04:13:10;;;;;;;6.20;1.17;;;;;;;11.95;60.98;98138.59;4992562;28;20571;-84
2021/05/22 04:15:37;;;;;;;6.00;1.17;;;;;;;11.98;61.31;98135.69;4992554;28;20046;-84
2021/05/22 04:18:04;;;;;;;6.22;1.13;;;;;;;12.02;61.46;98130.97;4992582;28;20050;-84
2021/05/22 04:20:31;;;;;;;5.50;1.40;;;;;;;12.03;61.62;98133.47;4992222;28;20065;-84
2021/05/22 04:22:57;;;;;;;4.13;1.00;;;;;;;12.05;61.48;98130.72;4990968;28;20046;-84
2021/05/22 04:25:24;;;;;;;4.25;1.25;;;;;;;12.07;61.83;98121.72;4992206;28;20527;-84
2021/05/22 04:27:51;;;;;;;4.70;1.10;;;;;;;12.10;61.50;98137.28;4991170;28;20066;-84
2021/05/22 04:30:18;;;;;;;3.80;1.42;;;;;;;12.10;61.51;98126.72;4991988;28;20507;-84
2021/05/22 04:32:45;;;;;;;10.07;1.45;;;;;;;12.14;61.67;98135.19;4991991;28;20054;-84
2021/05/22 04:35:11;;;;;;;4.05;0.80;;;;;;;12.15;61.11;98125.47;4994785;28;20108;-84
2021/05/22 04:37:38;;;;;;;8.43;1.33;;;;;;;12.14;61.01;98140.47;5011842;28;20494;-83
2021/05/22 04:40:05;;;;;;;7.88;0.98;;;;;;;12.18;61.45;98133.13;5011734;28;20216;-85
2021/05/22 04:42:32;;;;;;;6.82;1.20;;;;;;;12.19;61.50;98126.88;5011919;28;20058;-84
2021/05/22 04:45:01;;;;;;;3.15;1.15;;;;;;;12.22;61.40;98134.47;5011072;28;20060;-84
2021/05/22 04:47:28;;;;;;;7.00;1.30;;;;;;;12.25;61.63;98139.50;5011441;28;20617;-83
2021/05/22 04:49:56;;;;;;;4.25;0.90;;;;;;;12.27;60.98;98140.22;5010522;28;20057;-84
2021/05/22 04:52:23;;;;;;;4.85;1.00;;;;;;;12.31;61.23;98133.69;5011723;28;20052;-85
2021/05/22 04:54:51;;;;;;;2.25;0.95;;;;;;;12.34;61.17;98130.75;5010262;28;20056;-84
2021/05/22 04:57:18;;;;;;;3.47;1.10;;;;;;;12.36;61.13;98128.81;5010456;28;20054;-84
2021/05/22 04:59:45;;;;;;;7.00;1.40;;;;;;;12.41;61.36;98124.94;5011875;28;20474;-84
2021/05/22 05:02:11;;;;;;;4.70;1.25;;;;;;;12.43;61.04;98137.00;5011411;28;20069;-84
2021/05/22 05:04:39;;;;;;;5.78;1.15;;;;;;;12.47;60.93;98125.19;4998356;28;20113;-84
2021/05/22 05:07:06;;;;;;;4.43;1.15;;;;;;;12.52;61.13;98124.75;4995970;28;20050;-84
2021/05/22 05:09:36;;;;;;;7.18;1.02;;;;;;;12.51;59.93;98131.03;4995926;28;20046;-84
2021/05/22 05:12:05;;;;;;;8.93;1.55;;;;;;;12.58;60.91;98140.06;4995714;28;20077;-84
2021/05/22 05:14:32;;;;;;;2.95;0.95;;;;;;;12.59;60.66;98136.44;5003246;28;20060;-84
2021/05/22 05:17:00;;;;;;;6.28;1.30;;;;;;;12.64;60.72;98125.47;5015505;28;20050;-84
2021/05/22 05:19:31;;;;;;;4.93;1.17;;;;;;;12.67;60.81;98127.78;5015116;28;20053;-84
2021/05/22 05:21:58;;;;;;;5.53;1.20;;;;;;;12.69;60.67;98117.09;5014852;28;20046;-84
2021/05/22 05:24:25;;;;;;;4.22;1.23;;;;;;;12.71;60.67;98117.81;5015243;28;20068;-84
2021/05/22 05:26:52;;;;;;;5.05;1.08;;;;;;;12.74;60.99;98104.31;5015141;28;20054;-84
2021/05/22 05:29:18;;;;;;;5.35;1.30;;;;;;;12.77;61.00;98122.50;5014995;28;20050;-85
2021/05/22 05:31:45;;;;;;;4.63;1.17;;;;;;;12.81;61.32;98108.03;5012203;28;20058;-85
2021/05/22 05:34:12;;;;;;;4.03;1.33;;;;;;;12.83;60.78;98131.66;4995141;28;20058;-84
2021/05/22 05:36:38;;;;;;;5.32;1.30;;;;;;;12.82;60.63;98117.63;4995491;28;20452;-85
2021/05/22 05:39:07;;;;;;;7.53;2.25;;;;;;;12.81;59.99;98134.44;4995041;28;20057;-84
2021/05/22 05:41:33;;;;;;;6.10;1.65;;;;;;;12.84;60.44;98131.53;4993983;28;20053;-84
2021/05/22 05:44:00;;;;;;;7.53;1.40;;;;;;;12.84;60.61;98125.41;5013553;28;20054;-85
2021/05/22 05:46:26;;;;;;;5.05;1.70;;;;;;;12.80;60.37;98132.78;5000187;28;20077;-85
2021/05/22 05:48:53;;;;;;;8.68;1.90;;;;;;;12.82;60.72;98125.53;4994673;28;20054;-84
2021/05/22 05:51:20;;;;;;;3.72;1.05;;;;;;;12.83;60.69;98134.31;4993681;28;20051;-84
2021/05/22 05:53:46;;;;;;;4.60;1.00;;;;;;;12.85;60.94;98148.19;4994780;28;20050;-84
2021/05/22 05:56:13;;;;;;;5.78;1.55;;;;;;;12.87;60.69;98130.41;4994500;28;20054;-84
2021/05/22 05:58:39;;;;;;;7.03;1.48;;;;;;;12.88;60.51;98140.00;4994701;28;20212;-84
2021/05/22 06:01:08;;;;;;;6.78;1.58;;;;;;;12.88;60.36;98130.28;4994599;28;20054;-85
2021/05/22 06:03:34;;;;;;;8.45;1.50;;;;;;;12.89;60.33;98129.28;5008046;28;20049;-84
2021/05/22 06:06:01;;;;;;;7.22;1.48;;;;;;;12.92;60.43;98135.25;5014146;28;20053;-84
2021/05/22 06:08:28;;;;;;;5.35;1.10;;;;;;;12.93;60.43;98134.28;5013834;28;20054;-84
2021/05/22 06:10:54;;;;;;;6.93;1.45;;;;;;;12.90;59.96;98125.66;5014264;28;20045;-84
2021/05/22 06:13:30;;;;;;;10.02;1.55;;;;;;;12.88;58.84;98138.19;5001134;28;20042;-84
2021/05/22 06:18:38;;;;;;;5.68;1.33;;;;;;;12.87;58.33;98128.59;5014487;28;20057;-85
2021/05/22 06:21:07;;;;;;;4.07;1.50;;;;;;;12.90;59.76;98133.59;5013836;28;20049;-84
2021/05/22 06:23:35;;;;;;;7.00;1.50;;;;;;;12.93;60.04;98123.72;5013731;28;20149;-85
2021/05/22 06:26:03;;;;;;;7.10;1.33;;;;;;;12.95;60.08;98140.25;5012419;28;20053;-84
2021/05/22 06:28:30;;;;;;;6.85;1.38;;;;;;;12.95;59.98;98134.97;5013445;28;20050;-84
2021/05/22 06:31:01;;;;;;;9.70;1.80;;;;;;;12.95;59.34;98142.91;5014014;28;20053;-85
2021/05/22 06:33:29;;;;;;;4.25;1.33;;;;;;;12.96;60.17;98129.56;5000213;28;20130;-85
2021/05/22 06:35:55;;;;;;;9.10;1.52;;;;;;;12.94;60.41;98147.38;4993062;28;20061;-84
2021/05/22 06:38:22;;;;;;;3.50;1.20;;;;;;;12.91;60.53;98142.34;4994171;28;20061;-85
2021/05/22 06:40:50;;;;;;;4.85;1.42;;;;;;;12.88;60.72;98154.03;4994211;28;20062;-85
2021/05/22 06:43:16;;;;;;;6.93;1.70;;;;;;;12.82;60.58;98159.06;4992388;28;20053;-85
2021/05/22 06:45:44;;;;;;;8.32;1.67;;;;;;;12.79;60.88;98148.78;4994033;28;20054;-84
2021/05/22 06:48:13;;;;;;;7.57;1.60;;;;;;;12.73;60.77;98150.16;4992803;28;20061;-84
2021/05/22 06:50:41;;;;;;;6.03;1.75;;;;;;;12.71;61.27;98154.78;4992968;28;20467;-85
2021/05/22 06:53:08;;;;;;;8.35;1.55;;;;;;;12.64;60.81;98155.31;5003287;28;20046;-85
2021/05/22 06:55:34;;;;;;;6.45;1.70;;;;;;;12.64;61.48;98157.94;5012031;28;20064;-85
2021/05/22 06:58:01;;;;;;;6.78;1.60;;;;;;;12.61;61.40;98160.91;4993783;28;20058;-85
2021/05/22 07:00:28;;;;;;;4.28;1.42;;;;;;;12.58;61.73;98158.53;4992398;28;20500;-85
2021/05/22 07:02:55;;;;;;;6.45;2.25;;;;;;;12.57;62.00;98162.16;4992125;28;20057;-85
2021/05/22 07:05:21;;;;;;;5.95;1.60;;;;;;;12.53;62.22;98155.47;4992088;28;20050;-84
2021/05/22 07:07:48;;;;;;;7.13;1.75;;;;;;;12.49;62.33;98162.00;4992194;28;20488;-85
2021/05/22 07:10:15;;;;;;;6.20;1.58;;;;;;;12.46;62.58;98168.41;4993314;28;20051;-84
2021/05/22 07:12:42;;;;;;;10.93;1.63;;;;;;;12.43;62.77;98165.19;4993271;28;20488;-84
2021/05/22 07:15:10;;;;;;;4.82;1.40;;;;;;;12.36;63.15;98167.53;4993322;28;20050;-85
2021/05/22 07:17:37;;;;;;;5.68;1.38;;;;;;;12.32;63.42;98159.09;4993646;28;20050;-84
2021/05/22 07:20:05;;;;;;;5.63;1.70;;;;;;;12.27;63.61;98165.75;4993099;28;20054;-84
2021/05/22 07:22:32;;;;;;;5.28;1.52;;;;;;;12.22;63.70;98171.41;4992784;28;20078;-83
2021/05/22 07:24:59;;;;;;;5.93;1.52;;;;;;;12.18;64.12;98170.88;4993071;28;20054;-84
2021/05/22 07:27:26;;;;;;;10.57;2.20;;;;;;;12.12;64.38;98174.88;5009507;28;20050;-84
2021/05/22 07:29:52;;;;;;;10.20;1.67;;;;;;;12.10;64.69;98165.44;5012355;28;20054;-83
2021/05/22 07:32:19;;;;;;;7.88;1.30;;;;;;;12.05;64.92;98176.41;5012647;28;20050;-83
2021/05/22 07:34:45;;;;;;;8.07;1.70;;;;;;;12.02;65.03;98181.06;5012393;28;20061;-83
2021/05/22 07:37:12;;;;;;;4.97;1.23;;;;;;;11.99;65.20;98182.19;5011315;28;20049;-83
2021/05/22 07:39:39;;;;;;;5.63;1.60;;;;;;;11.94;65.29;98177.34;5013082;28;20053;-83
2021/05/22 07:42:06;;;;;;;3.70;1.00;;;;;;;11.92;65.68;98189.00;5012962;28;20419;-83
2021/05/22 07:44:33;;;;;;;6.20;1.42;;;;;;;11.90;66.01;98178.56;5012294;28;20501;-83
2021/05/22 07:46:59;;;;;;;10.80;2.10;;;;;;;11.88;66.11;98195.50;5012733;28;20057;-83
2021/05/22 07:49:37;;;;;;;6.20;1.80;;;;;;;11.87;65.96;98189.38;5012560;28;20056;-83
2021/05/22 07:52:09;;;;;;;8.60;1.98;;;;;;;11.83;66.37;98196.75;5011168;28;20056;-83
2021/05/22 07:54:43;;;;;;;9.48;1.60;;;;;;;11.83;66.50;98188.84;5012164;28;20045;-83
2021/05/22 07:57:10;;;;;;;;;;;;;;;11.80;66.09;98186.47;5013535;28;20054;-83
2021/05/22 07:59:37;;;;;;;3.22;1.38;;;;;;;11.85;66.33;98192.16;5013099;28;19925;-83
2021/05/22 08:02:05;;;;;;;7.68;1.85;;;;;;;11.82;66.56;98187.13;5011118;28;20056;-84
2021/05/22 08:04:32;;;;;;;5.97;1.40;;;;;;;11.81;66.80;98192.56;5006641;28;20090;-83
2021/05/22 08:06:59;;;;;;;6.70;1.70;;;;;;;11.81;66.78;98203.13;4991766;28;20058;-83
2021/05/22 08:09:26;;;;;;;6.10;1.58;;;;;;;11.82;66.95;98199.50;4993459;28;20054;-84
2021/05/22 08:11:52;;;;;;;8.57;1.67;;;;;;;11.81;67.03;98206.56;4992972;28;20050;-83
2021/05/22 08:14:23;;;;;;;5.50;1.75;;;;;;;11.82;66.87;98210.88;4996131;28;20129;-83
2021/05/22 08:16:50;;;;;;;4.22;1.50;;;;;;;11.82;67.41;98200.31;5012557;28;20400;-83
2021/05/22 08:19:16;;;;;;;6.32;1.67;;;;;;;11.84;67.39;98208.94;5012428;28;20514;-83
2021/05/22 08:21:43;;;;;;;6.03;1.30;;;;;;;11.84;67.38;98198.41;5012310;28;20050;-84
2021/05/22 08:24:11;;;;;;;6.00;1.77;;;;;;;11.87;67.49;98213.13;5012284;28;20545;-83
2021/05/22 08:26:39;;;;;;;7.47;1.60;;;;;;;11.88;67.47;98206.06;5012303;28;20050;-83
2021/05/22 08:29:25;;;;;;;5.70;1.55;;;;;;;11.88;67.30;98217.41;5012781;28;20058;-84
2021/05/22 08:31:52;;;;;;;5.18;1.80;;;;;;;11.87;67.32;98207.84;5012227;28;20046;-83
2021/05/22 08:34:18;;;;;;;7.13;2.00;;;;;;;11.88;67.30;98221.88;5009311;28;20042;-83
2021/05/22 08:36:45;;;;;;;6.63;1.70;;;;;;;11.89;67.55;98224.34;4992945;28;20054;-83
2021/05/22 08:39:12;;;;;;;6.53;1.75;;;;;;;11.89;67.45;98215.63;4993181;28;20050;-83
2021/05/22 08:41:39;;;;;;;4.70;1.45;;;;;;;11.88;67.40;98220.03;4998094;28;20059;-83
2021/05/22 08:44:06;;;;;;;6.57;1.55;;;;;;;11.90;67.48;98235.75;4998172;28;20500;-83
2021/05/22 08:46:32;;;;;;;5.97;1.55;;;;;;;11.88;67.52;98220.03;5004096;28;20103;-84
2021/05/22 08:48:59;;;;;;;7.90;2.00;;;;;;;11.86;67.50;98230.72;5017098;28;20069;-83
2021/05/22 08:51:26;;;;;;;5.32;1.95;;;;;;;11.84;67.53;98229.19;5015747;28;20096;-84
2021/05/22 08:53:54;;;;;;;3.25;1.50;;;;;;;11.85;67.73;98230.88;5015734;28;20407;-83
2021/05/22 08:56:21;;;;;;;6.68;2.03;;;;;;;11.88;67.99;98216.59;5014575;28;20824;-84
2021/05/22 08:58:47;;;;;;;5.60;1.60;;;;;;;11.86;67.85;98230.72;5015629;28;20054;-84
2021/05/22 09:01:14;;;;;;;5.22;1.77;;;;;;;11.86;67.94;98224.63;5015407;28;20050;-83
2021/05/22 09:03:44;;;;;;;3.60;1.70;;;;;;;11.90;68.11;98228.69;5015538;28;20077;-84
2021/05/22 09:06:10;;;;;;;4.57;1.60;;;;;;;11.93;68.18;98235.47;4997656;28;20054;-83
2021/05/22 09:08:37;;;;;;;6.45;1.33;;;;;;;11.97;68.31;98221.06;4995966;28;20058;-84
2021/05/22 09:11:06;;;;;;;2.20;1.55;;;;;;;11.97;68.02;98239.53;4994560;28;20046;-83
2021/05/22 09:13:34;;;;;;;3.88;1.52;;;;;;;12.03;67.90;98238.97;4995939;28;20050;-84
2021/05/22 09:16:11;;;;;;;3.30;1.50;;;;;;;11.99;67.83;98248.13;5010534;28;20519;-84
2021/05/22 09:18:41;;;;;;;6.50;1.50;;;;;;;12.05;67.81;98250.25;5014289;28;20077;-84
2021/05/22 09:21:13;;;;;;;6.30;1.50;;;;;;;12.06;67.96;98264.25;5014882;28;20053;-83
2021/05/22 09:23:43;;;;;;;4.55;1.65;;;;;;;12.07;67.99;98237.75;5015065;28;20056;-85
2021/05/22 09:26:12;;;;;;;5.25;1.75;;;;;;;12.10;68.02;98244.56;5014969;28;20491;-85
2021/05/22 09:28:45;;;;;;;4.68;1.50;;;;;;;12.10;68.04;98241.94;5015585;28;20476;-84
2021/05/22 09:31:19;;;;;;;7.25;1.77;;;;;;;12.13;68.23;98244.31;5014761;28;20499;-84
2021/05/22 09:33:47;;;;;;;5.90;1.38;;;;;;;12.17;68.37;98244.84;5013532;28;20100;-84
2021/05/22 09:36:15;;;;;;;4.60;1.40;;;;;;;12.20;68.12;98252.50;5013282;28;20430;-84
2021/05/22 09:38:43;;;;;;;6.95;1.73;;;;;;;12.21;68.31;98260.28;5014387;28;20049;-84
2021/05/22 09:41:21;;;;;;;3.15;1.27;;;;;;;12.19;67.54;98267.50;5015757;28;20054;-84
2021/05/22 09:44:08;;;;;;;4.47;1.23;;;;;;;12.20;67.80;98258.63;5014522;28;20041;-84
2021/05/22 09:46:56;;;;;;;6.45;1.55;;;;;;;12.27;67.96;98264.19;4997974;28;20141;-84
2021/05/22 09:49:34;;;;;;;6.95;1.40;;;;;;;12.28;68.01;98260.59;4995904;28;20053;-84
2021/05/22 09:52:13;;;;;;;2.75;1.35;;;;;;;12.33;68.17;98271.56;4993931;28;20054;-84
2021/05/22 09:54:56;;;;;;;4.30;1.40;;;;;;;12.36;67.66;98265.19;4993914;28;20054;-84
2021/05/22 09:57:32;;;;;;;4.20;1.38;;;;;;;12.39;67.88;98270.19;4995144;28;20046;-83
2021/05/22 10:00:15;;;;;;;3.33;1.33;;;;;;;12.42;67.54;98274.34;4994570;28;20057;-84
2021/05/22 10:02:48;;;;;;;2.83;1.20;;;;;;;12.46;67.96;98278.41;4994120;28;20108;-84
2021/05/22 10:05:14;;;;;;;4.28;1.20;;;;;;;12.50;67.92;98277.16;4995968;28;20057;-84
2021/05/22 10:07:45;;;;;;;3.95;1.00;;;;;;;12.52;68.11;98272.56;4994231;28;20108;-84
2021/05/22 10:10:14;;;;;;;3.40;1.15;;;;;;;12.50;67.82;98299.13;4995912;28;20058;-84
2021/05/22 10:12:43;;;;;;;3.47;1.00;;;;;;;12.51;67.80;98284.94;4994681;28;20058;-84
2021/05/22 10:15:11;;;;;;;3.92;1.63;;;;;;;12.51;67.90;98289.38;5004213;28;20050;-84
2021/05/22 10:17:38;;;;;;;2.75;0.95;;;;;;;12.54;67.78;98294.38;5013957;28;20061;-85
2021/05/22 10:20:06;;;;;;;2.38;1.02;;;;;;;12.54;67.94;98299.66;5014759;28;20046;-84
2021/05/22 10:22:33;;;;;;;3.70;1.00;;;;;;;12.54;68.17;98299.66;5014621;28;20543;-83
2021/05/22 10:25:02;;;;;;;2.58;1.10;;;;;;;12.54;68.29;98301.47;5014227;28;20053;-85
2021/05/22 10:27:29;;;;;;;3.10;1.00;;;;;;;12.53;68.13;98319.13;5014941;28;20511;-84
2021/05/22 10:29:55;;;;;;;4.28;1.20;;;;;;;12.53;68.11;98313.00;5013849;28;20057;-84
2021/05/22 10:32:26;;;;;;;2.53;1.13;;;;;;;12.49;68.28;98312.44;5015252;28;20053;-85
2021/05/22 10:34:54;;;;;;;2.55;0.98;;;;;;;12.50;68.09;98314.09;5014409;28;20046;-85
2021/05/22 10:37:49;;;;;;;3.88;1.10;;;;;;;12.46;68.67;98317.97;5014788;28;20061;-84
2021/05/22 10:40:18;;;;;;;2.92;1.05;;;;;;;12.48;68.89;98321.31;5014747;28;20057;-84
2021/05/22 10:42:53;;;;;;;5.93;1.45;;;;;;;12.46;68.75;98325.91;5014767;28;20076;-85
2021/05/22 10:45:38;;;;;;;5.60;1.30;;;;;;;12.42;69.37;98327.97;5006642;28;20050;-84
2021/05/22 10:48:06;;;;;;;3.45;1.00;;;;;;;12.48;69.35;98324.78;4994545;28;20054;-84
2021/05/22 10:50:41;;;;;;;2.55;1.10;;;;;;;12.48;69.40;98323.94;4993141;28;20069;-85
2021/05/22 10:53:18;;;;;;;5.40;1.50;;;;;;;12.47;69.21;98336.31;4993652;28;20062;-85
2021/05/22 10:56:02;;;;;;;3.50;1.35;;;;;;;12.51;69.48;98332.44;5003621;28;20042;-84
2021/05/22 10:58:29;;;;;;;3.83;1.02;;;;;;;12.54;69.32;98336.63;5012998;28;20697;-84
2021/05/22 11:01:24;;;;;;;2.70;1.20;;;;;;;12.50;69.55;98330.78;5012616;28;20121;-84
2021/05/22 11:06:58;;;;;;;4.15;1.20;;;;;;;12.55;69.72;98342.72;5004632;28;20111;-85
2021/05/22 11:09:25;;;;;;;3.38;1.35;;;;;;;12.59;69.70;98342.31;4994145;28;20050;-84
2021/05/22 11:11:53;;;;;;;3.38;1.30;;;;;;;12.60;69.83;98336.06;4994100;28;20066;-84
2021/05/22 11:14:46;;;;;;;2.70;1.25;;;;;;;12.59;70.22;98341.47;4993794;28;20050;-85
2021/05/22 11:17:19;;;;;;;;;;;;;;;12.64;69.54;98350.66;5006576;28;20050;-85
2021/05/22 11:22:25;;;;;;;4.63;1.50;;;;;;;12.69;69.60;98357.34;5012974;28;20053;-84
2021/05/22 11:25:07;;;;;;;2.80;1.20;;;;;;;12.64;69.95;98350.66;5013209;28;20052;-84
2021/05/22 11:27:47;;;;;;;2.17;1.27;;;;;;;12.64;69.76;98363.84;4996619;28;20054;-84
2021/05/22 11:30:26;;;;;;;3.33;1.60;;;;;;;12.63;69.94;98367.47;4992378;28;20054;-84
2021/05/22 11:32:58;;;;;;;4.95;1.50;;;;;;;12.64;69.90;98363.84;4992375;28;20053;-85
2021/05/22 11:35:25;;;;;;;4.28;1.23;;;;;;;12.64;70.11;98366.50;4992065;28;20057;-84
2021/05/22 11:37:53;;;;;;;3.63;1.30;;;;;;;12.63;70.30;98375.41;4994977;28;20070;-84
2021/05/22 11:40:53;;;;;;;4.15;1.40;;;;;;;12.61;70.65;98372.06;5012749;28;20396;-84
2021/05/22 11:43:20;;;;;;;3.72;1.42;;;;;;;12.68;70.38;98385.56;5000156;28;20053;-84
2021/05/22 11:46:00;;;;;;;5.03;1.85;;;;;;;12.69;70.48;98389.00;5011181;28;20061;-85
2021/05/22 11:48:36;;;;;;;5.00;1.50;;;;;;;12.70;70.64;98382.75;4993067;28;20054;-85
2021/05/22 11:51:05;;;;;;;4.13;1.52;;;;;;;12.72;70.67;98381.69;4992274;28;20101;-85